Time;durP1;ratioP1;P1;durP2;ratioP2;P2;SDS_P1;SDS_P2;PMS_P1;PMS_P2;Temp;Humidity;BMP_temperature;BMP_pressure;BME280_temperature;BME280_humidity;BME280_pressure;Samples;Min_cycle;Max_cycle;Signal;HPM_P1;HPM_P2
2023/06/30 00:01:29;;;;;;;3.23;2.50;;;;;;;17.79;100.00;99132.84;5049814;28;20227;-71
2023/06/30 00:03:56;;;;;;;4.73;3.13;;;;;;;17.77;100.00;99117.47;5053966;28;20203;-72
2023/06/30 00:06:24;;;;;;;3.10;2.70;;;;;;;17.75;100.00;99124.56;5059337;28;20219;-72
2023/06/30 00:08:51;;;;;;;6.67;3.30;;;;;;;17.76;100.00;99121.00;5070082;28;20264;-72
2023/06/30 00:11:23;;;;;;;3.80;3.00;;;;;;;17.72;100.00;99130.03;5067891;28;20224;-72
2023/06/30 00:13:50;;;;;;;5.73;3.17;;;;;;;17.71;100.00;99122.44;5054212;28;20209;-71
2023/06/30 00:16:17;;;;;;;4.17;3.07;;;;;;;17.66;100.00;99125.50;5051967;28;20226;-71
2023/06/30 00:18:45;;;;;;;5.20;3.20;;;;;;;17.62;100.00;99119.00;5069117;28;20216;-73
2023/06/30 00:21:12;;;;;;;2.63;2.40;;;;;;;17.60;100.00;99121.75;5069323;28;20218;-72
2023/06/30 00:23:39;;;;;;;4.93;3.13;;;;;;;17.56;100.00;99124.78;5060814;28;20208;-71
2023/06/30 00:26:06;;;;;;;3.97;3.03;;;;;;;17.50;100.00;99120.25;5057635;28;20224;-71
2023/06/30 00:28:32;;;;;;;5.60;2.90;;;;;;;17.45;100.00;99118.09;5069561;28;20195;-71
2023/06/30 00:30:59;;;;;;;4.93;3.17;;;;;;;17.42;100.00;99129.59;5068843;28;20215;-71
2023/06/30 00:33:26;;;;;;;4.00;3.00;;;;;;;17.45;100.00;99127.63;5055533;28;20203;-72
2023/06/30 00:35:54;;;;;;;5.63;3.13;;;;;;;17.40;100.00;99130.69;5061585;28;20321;-71
2023/06/30 00:38:21;;;;;;;3.47;2.73;;;;;;;17.37;100.00;99129.22;5069210;28;20223;-71
2023/06/30 00:40:48;;;;;;;6.33;3.10;;;;;;;17.33;100.00;99122.72;5068369;28;20233;-71
2023/06/30 00:43:15;;;;;;;4.50;3.17;;;;;;;17.37;100.00;99128.44;5055706;28;20224;-72
2023/06/30 00:45:42;;;;;;;4.93;3.10;;;;;;;17.37;100.00;99126.66;5068720;28;20227;-71
2023/06/30 00:48:09;;;;;;;3.90;2.80;;;;;;;17.35;100.00;99118.22;5068813;28;20221;-71
2023/06/30 00:50:36;;;;;;;3.80;2.87;;;;;;;17.33;100.00;99125.31;5069174;28;20197;-72
2023/06/30 00:53:05;;;;;;;6.40;3.23;;;;;;;17.28;100.00;99124.97;5063661;28;20332;-71
2023/06/30 00:55:32;;;;;;;5.30;3.07;;;;;;;17.24;100.00;99121.06;5068871;28;20259;-72
2023/06/30 00:57:59;;;;;;;4.00;3.13;;;;;;;17.20;100.00;99122.34;5068856;28;20213;-72
2023/06/30 01:00:25;;;;;;;4.70;3.10;;;;;;;17.14;100.00;99122.97;5068238;28;20682;-72
2023/06/30 01:03:01;;;;;;;4.80;3.10;;;;;;;17.01;100.00;99120.75;5060488;28;20239;-71
2023/06/30 01:05:40;;;;;;;6.63;3.40;;;;;;;16.92;100.00;99114.72;5048749;28;20198;-72
2023/06/30 01:08:17;;;;;;;4.27;3.33;;;;;;;16.84;100.00;99119.84;5048181;28;20198;-72
2023/06/30 01:10:46;;;;;;;4.23;3.30;;;;;;;16.77;100.00;99113.66;5050156;28;20231;-72
2023/06/30 01:13:15;;;;;;;9.03;3.90;;;;;;;16.74;100.00;99119.88;5057135;28;20205;-72
2023/06/30 01:15:45;;;;;;;4.33;3.13;;;;;;;16.66;100.00;99121.59;5052813;28;20692;-71
2023/06/30 01:18:13;;;;;;;4.87;3.63;;;;;;;16.70;100.00;99117.78;5048708;28;20213;-72
2023/06/30 01:20:41;;;;;;;4.07;3.00;;;;;;;16.60;100.00;99109.28;5056448;28;20208;-72
2023/06/30 01:23:14;;;;;;;5.00;3.50;;;;;;;16.53;100.00;99117.63;5064782;28;20226;-71
2023/06/30 01:25:41;;;;;;;5.27;3.60;;;;;;;16.36;100.00;99121.00;5048955;28;20601;-71
2023/06/30 01:28:10;;;;;;;5.43;3.67;;;;;;;16.32;100.00;99119.69;5048403;28;20261;-72
2023/06/30 01:30:37;;;;;;;3.80;3.23;;;;;;;16.37;100.00;99120.03;5061668;28;20202;-72
2023/06/30 01:33:04;;;;;;;5.47;3.63;;;;;;;16.40;100.00;99112.00;5057682;28;20205;-72
2023/06/30 01:35:31;;;;;;;5.63;3.67;;;;;;;16.38;100.00;99113.94;5049829;28;20197;-72
2023/06/30 01:37:59;;;;;;;5.03;3.77;;;;;;;16.26;100.00;99115.09;5052940;28;20207;-72
2023/06/30 01:40:27;;;;;;;5.63;3.50;;;;;;;16.23;100.00;99112.81;5070596;28;20682;-71
2023/06/30 01:42:56;;;;;;;4.37;3.37;;;;;;;16.22;100.00;99108.63;5060561;28;20226;-71
2023/06/30 01:45:24;;;;;;;5.13;3.60;;;;;;;16.21;100.00;99112.97;5051766;28;20197;-71
2023/06/30 01:47:51;;;;;;;5.43;3.67;;;;;;;16.17;100.00;99105.66;5059145;28;20209;-72
2023/06/30 01:50:19;;;;;;;5.87;3.70;;;;;;;16.18;100.00;99107.31;5072173;28;20692;-71
2023/06/30 01:52:47;;;;;;;5.63;3.70;;;;;;;16.18;100.00;99099.56;5063213;28;20246;-71
2023/06/30 01:55:13;;;;;;;6.70;4.00;;;;;;;16.18;100.00;99102.94;5051780;28;20223;-72
2023/06/30 01:57:42;;;;;;;6.90;3.60;;;;;;;16.04;100.00;99096.50;5062345;28;20250;-72
2023/06/30 02:00:09;;;;;;;8.97;4.30;;;;;;;15.94;100.00;99100.94;5071805;28;20219;-71
2023/06/30 02:02:38;;;;;;;5.83;3.53;;;;;;;15.93;100.00;99099.28;5056899;28;20251;-72
2023/06/30 02:05:05;;;;;;;5.30;3.80;;;;;;;15.88;100.00;99105.84;5051637;28;20193;-71
2023/06/30 02:07:32;;;;;;;5.97;4.00;;;;;;;15.94;100.00;99100.09;5067314;28;20218;-72
2023/06/30 02:09:59;;;;;;;5.17;3.60;;;;;;;15.92;100.00;99092.53;5070951;28;20608;-72
2023/06/30 02:12:25;;;;;;;6.63;3.97;;;;;;;15.95;100.00;99097.38;5071251;28;20233;-72
2023/06/30 02:14:54;;;;;;;5.60;4.00;;;;;;;15.94;100.00;99095.78;5069174;28;20203;-73
2023/06/30 02:17:27;;;;;;;7.53;4.10;;;;;;;15.91;100.00;99101.22;5070797;28;20229;-72
2023/06/30 02:19:54;;;;;;;6.63;4.00;;;;;;;15.87;100.00;99097.28;5063762;28;20210;-71
2023/06/30 02:22:21;;;;;;;5.27;3.87;;;;;;;15.80;100.00;99104.00;5050891;28;20238;-72
2023/06/30 02:24:48;;;;;;;7.00;4.03;;;;;;;15.78;100.00;99100.75;5054829;28;20574;-72
2023/06/30 02:27:16;;;;;;;5.40;3.80;;;;;;;15.82;100.00;99107.22;5064394;28;20226;-72
2023/06/30 02:29:43;;;;;;;6.17;4.03;;;;;;;15.82;100.00;99112.38;5056669;28;20205;-71
2023/06/30 02:32:12;;;;;;;5.30;3.33;;;;;;;15.83;100.00;99109.66;5050923;28;20246;-72
2023/06/30 02:34:38;;;;;;;5.73;4.13;;;;;;;15.90;100.00;99103.94;5063756;28;20269;-71
2023/06/30 02:37:05;;;;;;;5.43;3.57;;;;;;;15.85;100.00;99106.94;5071416;28;20219;-72
2023/06/30 02:39:32;;;;;;;5.93;3.97;;;;;;;15.88;100.00;99106.66;5071735;28;20202;-71
2023/06/30 02:41:59;;;;;;;6.13;4.07;;;;;;;15.90;100.00;99098.78;5069462;28;20598;-72
2023/06/30 02:44:26;;;;;;;5.20;3.80;;;;;;;15.89;100.00;99102.31;5055696;28;20351;-72
2023/06/30 02:46:53;;;;;;;5.83;3.90;;;;;;;15.91;100.00;99108.97;5051235;28;20221;-71
2023/06/30 02:49:21;;;;;;;6.30;4.07;;;;;;;15.90;100.00;99104.75;5051303;28;20203;-71
2023/06/30 02:51:48;;;;;;;4.80;3.43;;;;;;;15.79;100.00;99112.66;5055001;28;20219;-71
2023/06/30 02:54:15;;;;;;;7.33;3.60;;;;;;;15.73;100.00;99108.91;5055695;28;20209;-71
2023/06/30 02:56:41;;;;;;;6.20;3.77;;;;;;;15.73;100.00;99108.91;5050952;28;20215;-71
2023/06/30 02:59:08;;;;;;;5.63;4.00;;;;;;;15.72;100.00;99106.47;5050841;28;20206;-72
2023/06/30 03:01:35;;;;;;;7.10;3.73;;;;;;;15.74;100.00;99099.41;5060165;28;20218;-72
2023/06/30 03:04:03;;;;;;;9.53;4.47;;;;;;;15.71;100.00;99110.03;5059020;28;20227;-71
2023/06/30 03:06:32;;;;;;;6.03;3.73;;;;;;;15.72;100.00;99111.63;5050835;28;20212;-72
2023/06/30 03:08:58;;;;;;;8.23;3.87;;;;;;;15.70;100.00;99109.19;5050570;28;20219;-71
2023/06/30 03:11:26;;;;;;;6.00;4.20;;;;;;;15.72;100.00;99109.06;5063740;28;20237;-71
2023/06/30 03:13:53;;;;;;;7.73;3.87;;;;;;;15.67;100.00;99109.44;5054017;28;20210;-72
2023/06/30 03:16:20;;;;;;;8.30;3.80;;;;;;;15.72;100.00;99107.28;5050910;28;20211;-71
2023/06/30 03:18:46;;;;;;;5.77;4.30;;;;;;;15.74;100.00;99109.72;5051935;28;20200;-73
2023/06/30 03:21:13;;;;;;;6.70;4.30;;;;;;;15.84;100.00;99105.31;5066317;28;20218;-72
2023/06/30 03:23:42;;;;;;;6.57;3.83;;;;;;;15.95;100.00;99110.28;5050449;28;20230;-72
2023/06/30 03:26:09;;;;;;;4.90;3.63;;;;;;;15.98;100.00;99104.84;5050606;28;20333;-72
2023/06/30 03:28:36;;;;;;;7.13;4.43;;;;;;;15.92;100.00;99108.00;5052758;28;20209;-72
2023/06/30 03:31:03;;;;;;;6.17;3.70;;;;;;;15.91;100.00;99106.38;5055409;28;20605;-72
2023/06/30 03:33:30;;;;;;;6.37;3.73;;;;;;;15.90;100.00;99104.75;5050756;28;20270;-71
2023/06/30 03:35:57;;;;;;;7.07;4.10;;;;;;;15.95;100.00;99112.88;5049431;28;20317;-71
2023/06/30 03:38:24;;;;;;;7.13;3.83;;;;;;;15.92;100.00;99107.19;5062112;28;20734;-71
2023/06/30 03:40:52;;;;;;;6.70;3.97;;;;;;;15.88;100.00;99111.00;5055634;28;20726;-71
2023/06/30 03:43:21;;;;;;;6.07;3.93;;;;;;;15.86;100.00;99103.41;5050405;28;20231;-71
2023/06/30 03:45:48;;;;;;;6.60;4.63;;;;;;;15.84;100.00;99111.28;5048552;28;20219;-73
2023/06/30 03:48:15;;;;;;;6.40;4.40;;;;;;;15.87;100.00;99110.19;5060789;28;20252;-71
2023/06/30 03:50:42;;;;;;;6.67;4.90;;;;;;;15.85;100.00;99106.94;5061645;28;20226;-72
2023/06/30 03:53:09;;;;;;;6.77;4.00;;;;;;;15.92;100.00;99107.19;5069997;28;20259;-72
2023/06/30 03:55:36;;;;;;;7.03;4.30;;;;;;;15.93;100.00;99095.91;5067332;28;20226;-72
2023/06/30 03:58:04;;;;;;;6.63;4.53;;;;;;;15.92;100.00;99097.69;5061007;28;20214;-72
2023/06/30 04:00:32;;;;;;;6.80;4.50;;;;;;;16.03;100.00;99094.91;5049959;28;20241;-72
2023/06/30 04:02:59;;;;;;;6.57;4.40;;;;;;;16.03;100.00;99104.41;5050030;28;20225;-71
2023/06/30 04:05:25;;;;;;;6.10;4.13;;;;;;;16.06;100.00;99104.94;5056937;28;20200;-72
2023/06/30 04:07:52;;;;;;;7.37;4.60;;;;;;;16.12;100.00;99102.72;5056260;28;20207;-71
2023/06/30 04:10:19;;;;;;;5.63;4.10;;;;;;;16.19;100.00;99103.75;5049980;28;20207;-71
2023/06/30 04:12:46;;;;;;;6.60;4.50;;;;;;;16.27;100.00;99101.25;5052969;28;20222;-71
2023/06/30 04:15:14;;;;;;;6.40;4.23;;;;;;;16.37;100.00;99101.97;5065129;28;20221;-72
2023/06/30 04:17:41;;;;;;;5.60;4.00;;;;;;;16.42;100.00;99099.78;5051353;28;20216;-72
2023/06/30 04:20:10;;;;;;;6.50;4.33;;;;;;;16.49;100.00;99100.81;5049759;28;20237;-71
2023/06/30 04:22:37;;;;;;;6.73;4.50;;;;;;;16.61;100.00;99098.81;5048981;28;20215;-73
2023/06/30 04:25:05;;;;;;;6.80;4.97;;;;;;;16.67;100.00;99105.16;5063299;28;20565;-71
2023/06/30 04:27:32;;;;;;;6.67;4.60;;;;;;;16.69;100.00;99106.63;5049558;28;20223;-72
2023/06/30 04:29:59;;;;;;;7.77;4.67;;;;;;;16.80;100.00;99103.03;5049686;28;20577;-72
2023/06/30 04:32:27;;;;;;;8.53;4.47;;;;;;;16.88;100.00;99110.84;5051979;28;20238;-72
2023/06/30 04:34:54;;;;;;;7.00;4.50;;;;;;;16.93;100.00;99108.63;5058443;28;20293;-71
2023/06/30 04:37:20;;;;;;;7.67;4.73;;;;;;;17.01;100.00;99119.94;5049642;28;20221;-71
2023/06/30 04:39:50;;;;;;;7.97;5.00;;;;;;;17.10;100.00;99119.03;5048999;28;20196;-72
2023/06/30 04:42:17;;;;;;;6.13;4.83;;;;;;;17.16;100.00;99124.44;5058673;28;20231;-71
2023/06/30 04:44:44;;;;;;;8.77;4.67;;;;;;;17.26;100.00;99119.16;5052838;28;20245;-71
2023/06/30 04:47:11;;;;;;;8.87;4.57;;;;;;;17.35;100.00;99128.56;5049149;28;20594;-71
2023/06/30 04:49:39;;;;;;;8.57;4.77;;;;;;;17.51;100.00;99121.84;5048854;28;20200;-72
2023/06/30 04:52:06;;;;;;;7.37;4.10;;;;;;;17.70;100.00;99116.44;5063295;28;20223;-71
2023/06/30 04:54:33;;;;;;;5.83;4.20;;;;;;;17.82;100.00;99123.00;5054391;28;20209;-71
2023/06/30 04:57:00;;;;;;;7.63;4.83;;;;;;;17.99;100.00;99121.25;5048916;28;20217;-72
2023/06/30 04:59:27;;;;;;;7.13;4.53;;;;;;;18.13;100.00;99122.44;5052166;28;20290;-71
2023/06/30 05:01:54;;;;;;;5.53;4.03;;;;;;;18.39;100.00;99121.53;5049234;28;20236;-72
2023/06/30 05:04:21;;;;;;;8.63;4.47;;;;;;;18.57;100.00;99129.94;5057422;28;20226;-71
2023/06/30 05:06:49;;;;;;;6.93;4.07;;;;;;;18.74;100.00;99123.84;5050003;28;20246;-72
2023/06/30 05:09:16;;;;;;;6.77;4.63;;;;;;;18.88;100.00;99126.72;5057750;28;20200;-72
2023/06/30 05:11:42;;;;;;;8.73;4.50;;;;;;;19.02;100.00;99126.06;5072173;28;20226;-72
2023/06/30 05:14:09;;;;;;;6.33;4.30;;;;;;;19.19;100.00;99122.47;5066300;28;20594;-72
2023/06/30 05:16:36;;;;;;;8.97;4.57;;;;;;;19.37;100.00;99126.63;5053182;28;20276;-71
2023/06/30 05:19:03;;;;;;;7.27;4.23;;;;;;;19.61;100.00;99124.00;5067221;28;20208;-71
2023/06/30 05:21:30;;;;;;;8.17;4.00;;;;;;;19.77;100.00;99128.31;5071882;28;20220;-72
2023/06/30 05:23:58;;;;;;;5.23;3.83;;;;;;;19.92;100.00;99133.59;5060527;28;20234;-71
2023/06/30 05:26:25;;;;;;;5.47;4.33;;;;;;;20.01;100.00;99140.41;5053645;28;20867;-71
2023/06/30 05:28:52;;;;;;;7.80;4.40;;;;;;;20.20;100.00;99138.34;5071715;28;20209;-72
2023/06/30 05:31:19;;;;;;;4.60;3.63;;;;;;;20.31;100.00;99130.16;5070817;28;20216;-75
2023/06/30 05:33:45;;;;;;;5.73;4.00;;;;;;;20.43;100.00;99133.97;5056049;28;20290;-72
2023/06/30 05:36:13;;;;;;;8.63;4.00;;;;;;;20.64;100.00;99140.34;5055591;28;20246;-74
2023/06/30 05:38:40;;;;;;;16.30;4.47;;;;;;;20.79;100.00;99147.19;5072115;28;20209;-73
2023/06/30 05:41:09;;;;;;;9.17;4.30;;;;;;;20.85;100.00;99148.28;5070122;28;20222;-72
2023/06/30 05:43:36;;;;;;;5.50;3.97;;;;;;;20.94;99.21;99152.44;5072452;28;20230;-72
2023/06/30 05:46:03;;;;;;;6.13;3.83;;;;;;;21.15;100.00;99148.34;5068222;28;20736;-73
2023/06/30 05:48:30;;;;;;;5.03;3.90;;;;;;;21.24;97.78;99142.09;5071761;28;20212;-72
2023/06/30 05:50:57;;;;;;;5.53;4.10;;;;;;;21.38;97.05;99149.13;5062439;28;20242;-73
2023/06/30 05:53:23;;;;;;;4.93;3.77;;;;;;;21.58;97.39;99145.97;5051742;28;20597;-73
2023/06/30 05:55:50;;;;;;;7.78;4.10;;;;;;;21.66;97.10;99151.06;5067801;28;20218;-73
2023/06/30 05:58:18;;;;;;;7.22;4.65;;;;;;;21.72;95.28;99158.16;5064803;28;20199;-75
2023/06/30 06:00:45;;;;;;;7.75;5.10;;;;;;;21.84;94.60;99153.28;5071100;28;20226;-75
2023/06/30 06:03:12;;;;;;;11.35;7.55;;;;;;;21.95;95.34;99160.66;5067891;28;20203;-76
2023/06/30 06:05:39;;;;;;;4.95;3.90;;;;;;;22.15;93.37;99160.88;5070620;28;20205;-74
2023/06/30 06:08:06;;;;;;;7.15;3.67;;;;;;;22.24;90.36;99159.00;5071633;28;20290;-77
2023/06/30 06:10:33;;;;;;;4.78;3.55;;;;;;;22.44;90.19;99161.81;5071770;28;20206;-76
2023/06/30 06:13:00;;;;;;;6.22;3.28;;;;;;;22.53;87.74;99161.50;5064641;28;20211;-76
2023/06/30 06:15:28;;;;;;;5.07;3.35;;;;;;;22.67;86.71;99165.03;5065052;28;20195;-76
2023/06/30 06:17:55;;;;;;;4.50;3.58;;;;;;;22.71;87.96;99155.84;5061408;28;20203;-76
2023/06/30 06:20:22;;;;;;;4.05;3.30;;;;;;;22.90;88.01;99161.41;5059771;28;20195;-74
2023/06/30 06:22:49;;;;;;;4.43;3.20;;;;;;;23.01;86.19;99160.94;5057349;28;20203;-74
2023/06/30 06:25:16;;;;;;;3.30;2.80;;;;;;;23.15;87.09;99157.41;5059289;28;20222;-74
2023/06/30 06:27:42;;;;;;;5.35;3.33;;;;;;;23.38;85.91;99157.16;5060531;28;20230;-74
2023/06/30 06:30:10;;;;;;;5.60;3.53;;;;;;;23.49;85.21;99161.03;5056360;28;20234;-74
2023/06/30 06:32:38;;;;;;;4.57;3.08;;;;;;;23.68;85.12;99162.94;5063175;28;20695;-74
2023/06/30 06:35:05;;;;;;;3.85;3.17;;;;;;;23.94;86.99;99157.06;5058993;28;20195;-74
2023/06/30 06:37:32;;;;;;;6.05;3.00;;;;;;;24.16;80.96;99159.53;5065098;28;20211;-74
2023/06/30 06:39:59;;;;;;;3.88;3.03;;;;;;;24.26;85.30;99153.91;5064880;28;20367;-74
2023/06/30 06:42:26;;;;;;;4.53;3.63;;;;;;;24.32;83.33;99159.19;5059440;28;20214;-74
2023/06/30 06:44:53;;;;;;;4.95;3.05;;;;;;;24.56;80.91;99164.88;5057599;28;20234;-74
2023/06/30 06:47:57;;;;;;;3.85;2.85;;;;;;;24.75;79.85;99168.50;5062175;28;20296;-74
2023/06/30 06:50:25;;;;;;;3.22;2.80;;;;;;;24.94;77.41;99167.69;5066704;28;20198;-74
2023/06/30 06:52:52;;;;;;;3.53;2.80;;;;;;;25.18;82.20;99166.28;5061480;28;20211;-74
2023/06/30 06:55:19;;;;;;;3.63;2.75;;;;;;;25.33;75.16;99165.25;5069877;28;20203;-73
2023/06/30 06:57:48;;;;;;;3.78;2.90;;;;;;;25.49;79.63;99165.63;5055011;28;20611;-73
2023/06/30 07:00:16;;;;;;;3.70;3.10;;;;;;;25.59;77.51;99167.00;5068751;28;20575;-74
2023/06/30 07:02:43;;;;;;;4.15;2.85;;;;;;;25.60;74.40;99173.84;5064808;28;20211;-74
2023/06/30 07:05:10;;;;;;;3.35;3.05;;;;;;;25.51;72.36;99168.84;5064326;28;20230;-74
2023/06/30 07:07:39;;;;;;;3.92;3.42;;;;;;;25.67;80.10;99161.56;5062567;28;20227;-74
2023/06/30 07:10:07;;;;;;;3.75;2.90;;;;;;;25.82;71.62;99174.38;5066615;28;20696;-74
2023/06/30 07:12:34;;;;;;;3.53;2.60;;;;;;;26.03;69.06;99173.31;5065347;28;20954;-74
2023/06/30 07:15:01;;;;;;;4.03;2.55;;;;;;;26.22;69.69;99169.78;5054650;28;20207;-73
2023/06/30 07:17:28;;;;;;;3.65;2.55;;;;;;;26.08;61.57;99178.75;5047918;28;20231;-74
2023/06/30 07:19:54;;;;;;;2.85;2.10;;;;;;;26.15;64.17;99169.00;5049611;28;20208;-74
2023/06/30 07:22:22;;;;;;;2.65;2.33;;;;;;;26.16;63.89;99170.63;5048473;28;20258;-74
2023/06/30 07:24:50;;;;;;;3.25;2.60;;;;;;;26.24;71.41;99162.53;5060933;28;20227;-74
2023/06/30 07:27:17;;;;;;;2.58;2.38;;;;;;;26.58;62.99;99168.38;5058869;28;20226;-74
2023/06/30 07:29:44;;;;;;;2.88;2.25;;;;;;;26.71;64.63;99168.28;5049912;28;20192;-74
2023/06/30 07:32:11;;;;;;;3.67;2.47;;;;;;;26.78;62.07;99171.66;5048709;28;20223;-74
2023/06/30 07:34:38;;;;;;;2.90;2.60;;;;;;;26.95;61.40;99168.50;5054066;28;20683;-74
2023/06/30 07:37:05;;;;;;;3.78;2.78;;;;;;;26.85;65.76;99161.94;5049152;28;20230;-75
2023/06/30 07:39:32;;;;;;;2.90;2.60;;;;;;;27.07;62.75;99172.03;5049747;28;20199;-75
2023/06/30 07:42:00;;;;;;;3.58;2.90;;;;;;;26.92;60.16;99163.69;5071244;28;20219;-73
2023/06/30 07:44:27;;;;;;;3.38;2.75;;;;;;;27.00;60.64;99166.84;5068357;28;20230;-75
2023/06/30 07:46:54;;;;;;;3.28;2.78;;;;;;;27.13;59.77;99168.53;5061863;28;20215;-74
2023/06/30 07:49:21;;;;;;;3.25;2.88;;;;;;;26.89;57.21;99164.13;5048821;28;20214;-73
2023/06/30 07:51:49;;;;;;;3.15;2.80;;;;;;;26.85;59.43;99164.56;5053740;28;20711;-75
2023/06/30 07:54:16;;;;;;;3.25;2.80;;;;;;;27.03;59.50;99161.16;5048912;28;20203;-72
2023/06/30 07:56:43;;;;;;;3.03;2.72;;;;;;;27.36;58.02;99159.25;5049058;28;20219;-74
2023/06/30 07:59:11;;;;;;;3.50;2.70;;;;;;;27.45;55.63;99164.00;5051840;28;20581;-72
2023/06/30 08:01:38;;;;;;;10.50;6.93;;;;;;;27.25;56.80;99164.19;5058857;28;20230;-74
2023/06/30 08:04:05;;;;;;;7.30;4.38;;;;;;;27.46;56.01;99162.16;5059651;28;20706;-73
2023/06/30 08:06:32;;;;;;;3.88;2.72;;;;;;;27.70;58.38;99158.66;5059973;28;20225;-71
2023/06/30 08:08:59;;;;;;;4.53;2.53;;;;;;;27.84;54.35;99155.91;5058783;28;20663;-75
2023/06/30 08:11:26;;;;;;;3.28;2.33;;;;;;;27.83;56.24;99165.59;5065754;28;20718;-74
2023/06/30 08:13:53;;;;;;;2.97;2.40;;;;;;;27.98;54.79;99162.59;5058137;28;20202;-74
2023/06/30 08:16:21;;;;;;;3.53;2.63;;;;;;;28.15;50.66;99158.31;5059525;28;20768;-73
2023/06/30 08:18:48;;;;;;;3.80;2.78;;;;;;;28.38;54.18;99151.53;5061551;28;20203;-71
2023/06/30 08:21:15;;;;;;;3.80;2.95;;;;;;;28.44;52.54;99153.28;5066131;28;20221;-77
2023/06/30 08:23:42;;;;;;;3.13;2.78;;;;;;;28.49;53.59;99158.69;5059062;28;20191;-72
2023/06/30 08:26:08;;;;;;;3.25;2.78;;;;;;;28.81;57.78;99139.97;5058103;28;20722;-71
2023/06/30 08:28:35;;;;;;;4.00;2.63;;;;;;;28.98;54.92;99148.78;5054760;28;20203;-71
2023/06/30 08:31:02;;;;;;;4.47;3.10;;;;;;;28.96;51.22;99153.47;5055880;28;20603;-71
2023/06/30 08:33:31;;;;;;;4.22;2.88;;;;;;;29.01;50.90;99145.69;5053533;28;20204;-75
2023/06/30 08:35:58;;;;;;;3.90;2.67;;;;;;;28.89;54.11;99143.06;5055501;28;20218;-72
2023/06/30 08:38:25;;;;;;;3.80;2.65;;;;;;;28.70;51.44;99140.75;5057325;28;20214;-75
2023/06/30 08:40:52;;;;;;;3.25;2.47;;;;;;;28.51;49.10;99151.38;5056890;28;20215;-72
2023/06/30 08:43:22;;;;;;;4.13;2.70;;;;;;;28.28;51.45;99146.81;5056941;28;20206;-76
2023/06/30 08:45:50;;;;;;;2.88;2.20;;;;;;;28.47;52.97;99144.13;5061516;28;20230;-75
2023/06/30 08:48:20;;;;;;;2.60;2.20;;;;;;;28.61;51.09;99146.34;5061060;28;20588;-75
2023/06/30 08:50:49;;;;;;;3.20;2.30;;;;;;;28.89;51.98;99139.63;5061394;28;20235;-72
2023/06/30 08:53:18;;;;;;;3.40;2.40;;;;;;;28.92;50.98;99141.00;5066466;28;20203;-72
2023/06/30 08:55:47;;;;;;;2.35;2.10;;;;;;;28.79;49.52;99148.06;5056123;28;20227;-75
2023/06/30 08:58:16;;;;;;;2.78;2.20;;;;;;;28.82;46.54;99146.81;5069303;28;20202;-75
2023/06/30 09:00:43;;;;;;;2.85;2.10;;;;;;;29.21;51.41;99139.28;5058840;28;20239;-75
2023/06/30 09:03:10;;;;;;;2.85;2.40;;;;;;;29.40;49.58;99132.03;5066012;28;20205;-75
2023/06/30 09:05:41;;;;;;;2.92;2.30;;;;;;;29.36;47.46;99136.97;5063921;28;20247;-72
2023/06/30 09:08:14;;;;;;;3.67;2.13;;;;;;;29.60;48.61;99137.72;5066823;28;20697;-72
2023/06/30 09:10:41;;;;;;;3.38;2.50;;;;;;;29.67;45.69;99134.97;5062755;28;20206;-75
2023/06/30 09:13:10;;;;;;;3.00;2.55;;;;;;;30.11;51.84;99140.53;5055203;28;20210;-72
2023/06/30 09:15:38;;;;;;;3.13;2.28;;;;;;;30.29;47.21;99134.28;5066144;28;20284;-75
2023/06/30 09:18:06;;;;;;;2.58;2.20;;;;;;;30.33;45.72;99130.91;5065095;28;20211;-72
2023/06/30 09:20:32;;;;;;;2.60;2.38;;;;;;;29.91;45.96;99123.31;5057245;28;20202;-72
2023/06/30 09:23:03;;;;;;;2.75;2.20;;;;;;;29.95;48.85;99124.41;5061782;28;20209;-71
2023/06/30 09:25:41;;;;;;;2.22;2.00;;;;;;;29.98;47.94;99120.50;5060107;28;20238;-75
2023/06/30 09:28:13;;;;;;;2.25;2.05;;;;;;;30.11;47.14;99111.53;5067336;28;20198;-72
2023/06/30 09:30:43;;;;;;;3.25;2.58;;;;;;;30.26;47.67;99103.91;5055215;28;20207;-75
2023/06/30 09:33:14;;;;;;;2.45;2.25;;;;;;;30.39;53.18;99108.84;5054805;28;20310;-72
2023/06/30 09:35:42;;;;;;;2.45;2.17;;;;;;;30.38;47.49;99112.53;5065931;28;20293;-72
2023/06/30 09:38:11;;;;;;;2.45;2.13;;;;;;;30.52;48.47;99104.31;5070009;28;20210;-71
2023/06/30 09:40:38;;;;;;;3.45;2.20;;;;;;;30.82;45.67;99091.56;5069342;28;20198;-72
2023/06/30 09:43:07;;;;;;;3.20;2.30;;;;;;;30.67;44.70;99100.03;5066643;28;20199;-71
2023/06/30 09:45:35;;;;;;;3.03;2.30;;;;;;;30.37;46.19;99100.38;5057264;28;20680;-74
2023/06/30 09:48:01;;;;;;;6.55;2.35;;;;;;;30.45;46.26;99097.31;5061987;28;20203;-75
2023/06/30 09:50:31;;;;;;;2.20;1.90;;;;;;;30.65;44.03;99096.03;5063007;28;20195;-72
2023/06/30 09:52:58;;;;;;;1.88;1.67;;;;;;;30.99;41.78;99090.75;5063428;28;20219;-72
2023/06/30 09:55:25;;;;;;;2.20;1.77;;;;;;;31.22;40.20;99092.34;5065645;28;20292;-75
2023/06/30 09:57:54;;;;;;;2.40;1.83;;;;;;;31.34;43.10;99082.44;5061285;28;20211;-73
2023/06/30 10:00:25;;;;;;;2.03;1.75;;;;;;;31.38;47.86;99083.56;5071169;28;20198;-72
2023/06/30 10:03:02;;;;;;;2.00;1.80;;;;;;;31.11;39.98;99094.84;5060257;28;20203;-76
2023/06/30 10:05:29;;;;;;;2.58;1.83;;;;;;;31.15;44.49;99084.59;5068504;28;20713;-75
2023/06/30 10:07:57;;;;;;;2.20;1.67;;;;;;;31.34;41.80;99083.25;5063063;28;20637;-76
2023/06/30 10:10:25;;;;;;;1.95;1.75;;;;;;;31.49;46.43;99080.00;5061452;28;20690;-75
2023/06/30 10:12:53;;;;;;;2.55;2.03;;;;;;;31.47;41.23;99076.81;5068700;28;20207;-75
2023/06/30 10:15:20;;;;;;;2.55;2.00;;;;;;;31.79;42.66;99084.00;5070328;28;20385;-75
2023/06/30 10:17:49;;;;;;;2.97;2.05;;;;;;;31.51;41.57;99077.13;5070925;28;20222;-72
2023/06/30 10:20:17;;;;;;;2.42;2.10;;;;;;;31.56;41.42;99074.50;5071502;28;20226;-72
2023/06/30 10:22:45;;;;;;;3.55;1.90;;;;;;;31.51;42.78;99069.19;5058788;28;20707;-72
2023/06/30 10:25:16;;;;;;;2.50;2.00;;;;;;;31.43;42.99;99074.91;5066118;28;20654;-73
2023/06/30 10:27:43;;;;;;;3.38;2.08;;;;;;;31.20;42.63;99071.44;5058412;28;20706;-72
2023/06/30 10:30:13;;;;;;;2.35;1.92;;;;;;;31.09;40.81;99080.28;5070948;28;20721;-72
2023/06/30 10:32:40;;;;;;;2.17;1.92;;;;;;;31.23;41.05;99070.97;5056617;28;20219;-72
2023/06/30 10:35:13;;;;;;;2.63;2.05;;;;;;;31.60;46.50;99069.56;5051185;28;20207;-72
2023/06/30 10:37:40;;;;;;;2.95;1.77;;;;;;;31.57;42.23;99068.19;5064458;28;20237;-72
2023/06/30 10:40:08;;;;;;;3.53;2.10;;;;;;;31.74;45.60;99074.19;5070647;28;20641;-75
2023/06/30 10:42:38;;;;;;;2.08;1.90;;;;;;;31.88;46.65;99071.13;5057010;28;20226;-72
2023/06/30 10:45:06;;;;;;;2.22;2.03;;;;;;;31.77;47.02;99064.97;5050668;28;20619;-72
2023/06/30 10:47:39;;;;;;;2.95;2.15;;;;;;;31.65;42.37;99062.47;5050811;28;20215;-75
2023/06/30 10:50:17;;;;;;;3.22;2.10;;;;;;;31.43;43.47;99069.63;5050635;28;20253;-75
2023/06/30 10:52:51;;;;;;;5.47;2.15;;;;;;;31.77;44.60;99055.19;5050491;28;20218;-72
2023/06/30 10:55:21;;;;;;;2.20;2.00;;;;;;;31.62;44.46;99056.88;5050731;28;20449;-72
2023/06/30 10:57:53;;;;;;;2.20;2.00;;;;;;;31.80;45.64;99054.69;5058201;28;20203;-74
2023/06/30 11:00:24;;;;;;;2.30;2.05;;;;;;;32.08;44.63;99049.38;5069633;28;20235;-74
2023/06/30 11:02:56;;;;;;;2.65;2.22;;;;;;;32.06;41.57;99041.72;5060572;28;20768;-74
2023/06/30 11:05:25;;;;;;;2.80;2.25;;;;;;;32.32;42.53;99039.22;5058026;28;20223;-71
2023/06/30 11:07:54;;;;;;;2.38;2.13;;;;;;;32.11;40.67;99044.38;5060316;28;20898;-75
2023/06/30 11:10:28;;;;;;;2.30;2.10;;;;;;;31.94;39.02;99043.72;5059144;28;20198;-71
2023/06/30 11:12:56;;;;;;;2.20;2.00;;;;;;;32.36;41.98;99037.69;5061677;28;20229;-71
2023/06/30 11:15:35;;;;;;;2.15;1.98;;;;;;;32.02;38.69;99024.75;5059190;28;20206;-72
2023/06/30 11:18:05;;;;;;;2.15;1.80;;;;;;;32.00;39.85;99038.22;5062467;28;20203;-75
2023/06/30 11:20:34;;;;;;;2.10;1.90;;;;;;;31.22;40.23;99036.88;5067113;28;20205;-75
2023/06/30 11:23:02;;;;;;;2.38;1.88;;;;;;;31.35;41.86;99034.66;5064243;28;20206;-71
2023/06/30 11:25:29;;;;;;;2.28;2.08;;;;;;;31.42;44.68;99021.28;5061443;28;20254;-71
2023/06/30 11:27:57;;;;;;;2.35;2.15;;;;;;;31.62;44.19;99023.34;5065695;28;20206;-72
2023/06/30 11:30:24;;;;;;;2.55;2.20;;;;;;;31.70;42.06;99014.91;5058808;28;20198;-71
2023/06/30 11:32:59;;;;;;;2.72;2.20;;;;;;;31.66;42.29;99011.19;5059970;28;20205;-71